Time;durP1;ratioP1;P1;durP2;ratioP2;P2;SDS_P1;SDS_P2;PMS_P1;PMS_P2;Temp;Humidity;BMP_temperature;BMP_pressure;BME280_temperature;BME280_humidity;BME280_pressure;Samples;Min_cycle;Max_cycle;Signal;HPM_P1;HPM_P2
2022/06/24 00:02:00;;;;;;;5.55;2.35;;;20.60;74.90;;;;;;5032221;28;20087;-74
2022/06/24 00:04:28;;;;;;;5.22;2.58;;;20.60;76.00;;;;;;5034789;28;20048;-74
2022/06/24 00:06:56;;;;;;;5.78;2.58;;;20.60;76.60;;;;;;5039241;28;20395;-74
2022/06/24 00:09:26;;;;;;;5.03;2.42;;;20.60;76.80;;;;;;5032556;28;20061;-75
2022/06/24 00:12:10;;;;;;;6.03;2.88;;;20.60;77.80;;;;;;5031210;28;20045;-75
2022/06/24 00:14:37;;;;;;;5.43;2.47;;;20.70;78.20;;;;;;5044926;28;20502;-76
2022/06/24 00:17:09;;;;;;;4.88;2.40;;;20.70;78.10;;;;;;5033827;28;20088;-75
2022/06/24 00:19:59;;;;;;;5.18;2.80;;;20.70;78.10;;;;;;5032515;28;20045;-74
2022/06/24 00:22:30;;;;;;;5.57;2.70;;;20.70;78.50;;;;;;5032506;28;20140;-75
2022/06/24 00:25:19;;;;;;;6.00;2.47;;;20.60;78.40;;;;;;5042440;28;20053;-74
2022/06/24 00:28:01;;;;;;;6.53;2.90;;;20.60;78.90;;;;;;5014350;28;20053;-74
2022/06/24 00:30:27;;;;;;;5.63;2.72;;;20.60;79.60;;;;;;5031039;28;20089;-74
2022/06/24 00:33:11;;;;;;;6.75;2.65;;;20.60;80.80;;;;;;5031468;28;20076;-74
2022/06/24 00:35:46;;;;;;;5.35;2.88;;;20.50;82.20;;;;;;5063184;28;20049;-74
2022/06/24 00:38:25;;;;;;;6.93;2.85;;;20.40;81.50;;;;;;5051234;28;20052;-74
2022/06/24 00:41:08;;;;;;;6.47;2.90;;;20.40;81.70;;;;;;5051338;28;20064;-74
2022/06/24 00:43:36;;;;;;;6.28;2.80;;;20.30;82.00;;;;;;5030310;28;20042;-77
2022/06/24 00:46:23;;;;;;;7.07;2.67;;;20.20;82.90;;;;;;5048029;28;20049;-75
2022/06/24 00:48:51;;;;;;;5.35;2.63;;;20.10;85.10;;;;;;5039713;28;20081;-73
2022/06/24 00:51:18;;;;;;;6.53;2.83;;;20.00;85.20;;;;;;5014498;28;20037;-74
2022/06/24 00:53:48;;;;;;;5.80;2.60;;;20.00;85.40;;;;;;5030946;28;20049;-74
2022/06/24 00:56:20;;;;;;;5.70;2.70;;;20.00;86.70;;;;;;5047566;28;20049;-74
2022/06/24 00:58:58;;;;;;;6.20;2.90;;;20.00;88.10;;;;;;5024777;28;20053;-75
2022/06/24 01:01:27;;;;;;;6.97;3.10;;;19.90;88.30;;;;;;5030832;28;20538;-74
2022/06/24 01:03:56;;;;;;;5.00;2.85;;;19.80;88.80;;;;;;5031061;28;20077;-73
2022/06/24 01:06:21;;;;;;;7.03;2.90;;;19.70;89.30;;;;;;5030734;28;20459;-73
2022/06/24 01:08:47;;;;;;;6.60;2.97;;;19.70;90.00;;;;;;5038364;28;20049;-73
2022/06/24 01:11:13;;;;;;;7.35;2.95;;;19.60;90.50;;;;;;5031110;28;20062;-74
2022/06/24 01:13:39;;;;;;;9.13;2.90;;;19.60;90.70;;;;;;5027272;28;20053;-74
2022/06/24 01:16:05;;;;;;;8.55;2.95;;;19.60;90.40;;;;;;5040064;28;20053;-74
2022/06/24 01:18:30;;;;;;;5.80;2.63;;;19.60;89.70;;;;;;5045090;28;20451;-74
2022/06/24 01:20:56;;;;;;;5.10;2.60;;;19.60;88.80;;;;;;5039282;28;20080;-74
2022/06/24 01:23:24;;;;;;;6.00;2.70;;;19.60;88.90;;;;;;5049810;28;20114;-74
2022/06/24 01:25:49;;;;;;;5.82;2.72;;;19.60;89.10;;;;;;5038295;28;20545;-74
2022/06/24 01:28:15;;;;;;;6.35;3.00;;;19.60;89.60;;;;;;5040975;28;20050;-74
2022/06/24 01:30:41;;;;;;;6.55;2.72;;;19.60;90.10;;;;;;5039503;28;20045;-73
2022/06/24 01:33:06;;;;;;;6.78;2.90;;;19.60;90.10;;;;;;5043369;28;20071;-73
2022/06/24 01:35:32;;;;;;;4.82;2.72;;;19.60;90.30;;;;;;5048501;28;20049;-74
2022/06/24 01:37:58;;;;;;;5.53;3.00;;;19.50;90.20;;;;;;5018224;28;20050;-73
2022/06/24 01:40:23;;;;;;;7.28;3.05;;;19.50;90.60;;;;;;5035447;28;20046;-74
2022/06/24 01:42:49;;;;;;;6.88;3.20;;;19.50;90.90;;;;;;5035018;28;20136;-76
2022/06/24 01:45:15;;;;;;;6.95;3.05;;;19.50;91.10;;;;;;5034583;28;20473;-74
2022/06/24 01:47:40;;;;;;;5.22;3.00;;;19.40;91.20;;;;;;5050727;28;20136;-74
2022/06/24 01:50:07;;;;;;;5.65;2.97;;;19.40;91.60;;;;;;5050973;28;20085;-75
2022/06/24 01:52:33;;;;;;;7.18;2.78;;;19.40;92.00;;;;;;5020966;28;20399;-74
2022/06/24 01:54:58;;;;;;;6.35;2.67;;;19.30;92.70;;;;;;5045205;28;20160;-75
2022/06/24 01:57:25;;;;;;;6.78;2.90;;;19.30;93.30;;;;;;5034267;28;20487;-73
2022/06/24 01:59:51;;;;;;;5.22;2.80;;;19.20;93.20;;;;;;5041798;28;20106;-74
2022/06/24 02:02:17;;;;;;;7.57;3.38;;;19.20;93.40;;;;;;5039146;28;20049;-73
2022/06/24 02:04:47;;;;;;;6.32;3.28;;;19.20;93.50;;;;;;5033899;28;20128;-74
2022/06/24 02:07:12;;;;;;;5.35;2.60;;;19.10;93.40;;;;;;5029730;28;20056;-74
2022/06/24 02:13:26;;;;;;;5.45;2.70;;;19.10;93.30;;;;;;5019333;28;20049;-73
2022/06/24 02:15:08;;;;;;;6.05;3.40;;;19.00;93.20;;;;;;5035308;28;20140;-75
2022/06/24 02:17:34;;;;;;;6.13;2.88;;;18.90;93.40;;;;;;5033902;28;20400;-75
2022/06/24 02:19:59;;;;;;;5.47;2.83;;;18.90;93.50;;;;;;5016908;28;20045;-74
2022/06/24 02:22:25;;;;;;;5.45;2.75;;;19.00;93.70;;;;;;5024559;28;20479;-74
2022/06/24 02:24:51;;;;;;;6.47;3.00;;;19.00;93.50;;;;;;5042252;28;20099;-73
2022/06/24 02:27:16;;;;;;;6.28;3.00;;;19.00;93.60;;;;;;5052738;28;20484;-73
2022/06/24 02:29:42;;;;;;;6.45;3.10;;;19.00;93.90;;;;;;5043012;28;20053;-73
2022/06/24 02:32:08;;;;;;;5.68;3.00;;;18.80;94.00;;;;;;5048281;28;20037;-73
2022/06/24 02:34:33;;;;;;;5.90;3.28;;;18.70;94.70;;;;;;5023035;28;20049;-73
2022/06/24 02:36:59;;;;;;;5.97;3.38;;;18.70;94.80;;;;;;5034785;28;20053;-73
2022/06/24 02:39:25;;;;;;;6.03;3.30;;;18.70;95.10;;;;;;5017187;28;20132;-74
2022/06/24 02:41:51;;;;;;;7.25;3.60;;;18.70;95.30;;;;;;5032500;28;20378;-74
2022/06/24 02:44:16;;;;;;;5.97;3.20;;;18.70;95.30;;;;;;5043075;28;20373;-73
2022/06/24 02:46:42;;;;;;;5.85;3.15;;;18.70;95.10;;;;;;5049896;28;20056;-77
2022/06/24 02:49:08;;;;;;;7.60;3.20;;;18.80;94.90;;;;;;5041449;28;20111;-74
2022/06/24 02:51:33;;;;;;;7.03;2.90;;;18.90;94.50;;;;;;5045513;28;20373;-75
2022/06/24 02:53:59;;;;;;;5.82;3.17;;;18.90;94.70;;;;;;5035468;28;20128;-73
2022/06/24 02:56:25;;;;;;;7.75;3.30;;;19.00;95.40;;;;;;5022429;28;20054;-75
2022/06/24 02:58:50;;;;;;;8.05;3.17;;;18.90;97.20;;;;;;5062837;28;20052;-73
2022/06/24 03:01:16;;;;;;;7.50;3.25;;;18.90;96.20;;;;;;5054625;28;20068;-73
2022/06/24 03:03:42;;;;;;;5.63;2.78;;;18.80;96.00;;;;;;5052987;28;20045;-73
2022/06/24 03:06:08;;;;;;;4.70;2.60;;;18.80;95.90;;;;;;5038642;28;20366;-75
2022/06/24 03:08:33;;;;;;;6.63;3.78;;;18.90;95.70;;;;;;5052517;28;20049;-74
2022/06/24 03:11:00;;;;;;;7.78;3.65;;;18.90;96.90;;;;;;5032824;28;20125;-74
2022/06/24 03:13:28;;;;;;;7.07;3.50;;;18.90;97.40;;;;;;5032104;28;20048;-74
2022/06/24 03:15:53;;;;;;;5.95;2.67;;;18.80;97.40;;;;;;5046724;28;20114;-75
2022/06/24 03:18:20;;;;;;;6.03;2.90;;;18.80;96.90;;;;;;5052599;28;20049;-74
2022/06/24 03:20:46;;;;;;;5.18;2.55;;;18.80;96.80;;;;;;5047727;28;20557;-75
2022/06/24 03:23:13;;;;;;;6.10;3.30;;;18.80;96.40;;;;;;5053968;28;20396;-74
2022/06/24 03:25:39;;;;;;;5.47;2.83;;;18.90;96.60;;;;;;5032697;28;20050;-73
2022/06/24 03:28:05;;;;;;;6.38;3.10;;;18.90;96.70;;;;;;5023907;28;20060;-74
2022/06/24 03:30:34;;;;;;;6.50;3.05;;;18.90;96.30;;;;;;5032552;28;20045;-73
2022/06/24 03:33:00;;;;;;;8.50;3.50;;;18.90;96.20;;;;;;5032571;28;20159;-75
2022/06/24 03:35:26;;;;;;;5.40;2.60;;;18.90;96.70;;;;;;5032454;28;20131;-74
2022/06/24 03:37:52;;;;;;;6.65;2.90;;;18.80;96.80;;;;;;5016223;28;20073;-74
2022/06/24 03:40:18;;;;;;;7.60;2.90;;;18.80;96.60;;;;;;5033092;28;20061;-74
2022/06/24 03:42:43;;;;;;;6.57;3.45;;;18.90;95.40;;;;;;5031262;28;20072;-74
2022/06/24 03:45:09;;;;;;;6.32;3.20;;;19.00;95.20;;;;;;5028345;28;20110;-74
2022/06/24 03:47:35;;;;;;;6.47;2.85;;;18.90;95.30;;;;;;5033005;28;20045;-74
2022/06/24 03:50:01;;;;;;;7.22;3.30;;;19.00;95.10;;;;;;5058941;28;20079;-74
2022/06/24 03:52:27;;;;;;;6.63;3.20;;;18.90;95.40;;;;;;5015809;28;20049;-76
2022/06/24 03:54:52;;;;;;;7.65;3.60;;;18.90;96.40;;;;;;5033450;28;20143;-75
2022/06/24 03:57:18;;;;;;;7.57;2.85;;;18.90;97.10;;;;;;5031054;28;20135;-74
2022/06/24 03:59:44;;;;;;;5.90;2.90;;;18.90;97.00;;;;;;5048929;28;20053;-73
2022/06/24 04:02:10;;;;;;;6.65;3.28;;;18.90;97.30;;;;;;5028746;28;20053;-72
2022/06/24 04:04:35;;;;;;;6.22;3.05;;;19.00;95.10;;;;;;5032308;28;20057;-73
2022/06/24 04:07:01;;;;;;;6.10;2.85;;;19.20;95.50;;;;;;5026058;28;20065;-78
2022/06/24 04:09:27;;;;;;;7.13;3.33;;;19.20;95.50;;;;;;5045279;28;20053;-73
2022/06/24 04:11:52;;;;;;;6.47;3.10;;;19.20;95.40;;;;;;5015769;28;20064;-73
2022/06/24 04:17:03;;;;;;;5.43;2.90;;;19.20;95.70;;;;;;5031346;28;20192;-74
2022/06/24 04:19:29;;;;;;;5.63;3.20;;;19.20;96.20;;;;;;5014730;28;20052;-73
2022/06/24 04:21:55;;;;;;;8.25;2.83;;;19.20;97.00;;;;;;5031641;28;20038;-75
2022/06/24 04:24:20;;;;;;;8.13;3.13;;;19.30;97.50;;;;;;5032642;28;20053;-74
2022/06/24 04:26:46;;;;;;;7.82;3.00;;;19.30;98.10;;;;;;5040369;28;20052;-74
2022/06/24 04:29:12;;;;;;;6.05;3.20;;;19.40;98.20;;;;;;5025839;28;20047;-73
2022/06/24 04:31:38;;;;;;;6.30;3.10;;;19.50;99.30;;;;;;5034126;28;20063;-74
2022/06/24 04:34:03;;;;;;;7.90;3.65;;;19.50;99.60;;;;;;5037185;28;20037;-73
2022/06/24 04:36:29;;;;;;;6.00;3.05;;;19.70;99.90;;;;;;5045379;28;20128;-73
2022/06/24 04:38:55;;;;;;;6.57;3.40;;;19.80;99.90;;;;;;5041572;28;20052;-73
2022/06/24 04:41:20;;;;;;;5.90;3.10;;;19.90;99.90;;;;;;5032085;28;20107;-73
2022/06/24 04:43:46;;;;;;;5.55;3.30;;;19.90;99.70;;;;;;4999294;28;20509;-75
2022/06/24 04:46:12;;;;;;;10.30;3.50;;;20.00;99.20;;;;;;5040816;28;20041;-76
2022/06/24 04:48:37;;;;;;;7.63;3.35;;;20.00;98.90;;;;;;5037988;28;20399;-74
2022/06/24 04:51:04;;;;;;;6.85;3.50;;;20.00;99.40;;;;;;5033831;28;20048;-74
2022/06/24 04:53:30;;;;;;;6.95;3.50;;;20.20;99.90;;;;;;5044077;28;20499;-74
2022/06/24 04:55:57;;;;;;;6.53;3.30;;;20.20;99.90;;;;;;5034658;28;20049;-74
2022/06/24 04:58:23;;;;;;;8.20;3.33;;;20.30;99.90;;;;;;5036582;28;20111;-78
2022/06/24 05:00:49;;;;;;;6.65;3.30;;;20.40;99.90;;;;;;5045726;28;20041;-74
2022/06/24 05:03:15;;;;;;;6.53;3.65;;;20.80;99.90;;;;;;5032645;28;20053;-74
2022/06/24 05:05:41;;;;;;;8.88;4.20;;;21.10;99.90;;;;;;5033904;28;20053;-75
2022/06/24 05:08:07;;;;;;;7.38;4.78;;;21.30;97.90;;;;;;5041496;28;20045;-75
2022/06/24 05:10:33;;;;;;;9.38;5.50;;;21.60;98.40;;;;;;5034062;28;20093;-74
2022/06/24 05:12:58;;;;;;;8.65;6.03;;;21.80;99.00;;;;;;5024932;28;20045;-74
2022/06/24 05:15:24;;;;;;;11.88;6.28;;;22.10;98.60;;;;;;5042549;28;20052;-74
2022/06/24 05:17:50;;;;;;;11.30;7.28;;;22.00;98.80;;;;;;5033959;28;20049;-73
2022/06/24 05:20:15;;;;;;;12.48;7.82;;;21.90;99.40;;;;;;5032531;28;20464;-75
2022/06/24 05:22:41;;;;;;;12.15;8.48;;;21.80;99.90;;;;;;5034218;28;20049;-74
2022/06/24 05:25:07;;;;;;;11.93;8.65;;;21.80;99.90;;;;;;5032305;28;20045;-75
2022/06/24 05:27:34;;;;;;;11.85;8.65;;;21.80;99.90;;;;;;5029578;28;20060;-75
2022/06/24 05:30:00;;;;;;;15.82;10.18;;;21.70;99.90;;;;;;5015681;28;20072;-75
2022/06/24 05:32:25;;;;;;;12.82;10.10;;;21.60;99.90;;;;;;5030374;28;20073;-75
2022/06/24 05:34:51;;;;;;;13.52;10.30;;;21.50;99.90;;;;;;5047208;28;20091;-74
2022/06/24 05:37:17;;;;;;;13.32;10.15;;;21.30;99.90;;;;;;5028396;28;20048;-75
2022/06/24 05:39:43;;;;;;;14.25;9.98;;;21.20;99.90;;;;;;5030151;28;20049;-75
2022/06/24 05:42:09;;;;;;;14.07;9.65;;;21.10;99.90;;;;;;5031445;28;20053;-74
2022/06/24 05:44:34;;;;;;;12.05;10.75;;;21.00;99.90;;;;;;5034438;28;20077;-73
2022/06/24 05:47:00;;;;;;;15.40;13.10;;;20.90;99.90;;;;;;5022818;28;20515;-73
2022/06/24 05:49:26;;;;;;;16.23;11.55;;;20.80;99.90;;;;;;5040656;28;20048;-73
2022/06/24 05:51:52;;;;;;;14.88;11.63;;;20.80;99.90;;;;;;5043882;28;20051;-73
2022/06/24 05:57:02;;;;;;;16.15;12.18;;;20.70;99.90;;;;;;5035167;28;20107;-80
2022/06/24 05:59:27;;;;;;;12.68;10.75;;;20.50;99.90;;;;;;5033013;28;20050;-74
2022/06/24 06:01:53;;;;;;;14.05;10.60;;;20.50;99.90;;;;;;5030575;28;20045;-79
2022/06/24 06:04:19;;;;;;;14.60;12.65;;;20.50;99.90;;;;;;5031244;28;20038;-75
2022/06/24 06:06:45;;;;;;;14.38;12.00;;;20.50;99.90;;;;;;5013762;28;20041;-76
2022/06/24 06:09:11;;;;;;;12.85;11.25;;;20.60;99.90;;;;;;5036312;28;20053;-74
2022/06/24 06:11:37;;;;;;;14.13;11.45;;;20.70;99.90;;;;;;5031653;28;20076;-78
2022/06/24 06:14:03;;;;;;;12.85;9.43;;;20.60;99.90;;;;;;5038006;28;20032;-75
2022/06/24 06:16:29;;;;;;;14.05;9.57;;;20.60;99.90;;;;;;5043757;28;20044;-75
2022/06/24 06:18:54;;;;;;;11.40;9.25;;;20.60;99.90;;;;;;5038802;28;20076;-75
2022/06/24 06:21:20;;;;;;;12.93;8.18;;;20.60;99.90;;;;;;5055560;28;20443;-74
2022/06/24 06:23:47;;;;;;;11.55;8.18;;;20.60;99.90;;;;;;5017782;28;20087;-75
2022/06/24 06:26:12;;;;;;;12.85;8.88;;;20.60;99.90;;;;;;5037036;28;20140;-74
2022/06/24 06:28:38;;;;;;;12.50;8.32;;;20.70;99.90;;;;;;5047204;28;20188;-74
2022/06/24 06:31:05;;;;;;;11.43;8.82;;;20.80;99.90;;;;;;5034032;28;20049;-74
2022/06/24 06:33:33;;;;;;;12.30;8.60;;;20.80;99.90;;;;;;5032924;28;20125;-74
2022/06/24 06:36:09;;;;;;;10.13;7.63;;;20.70;99.90;;;;;;5040580;28;20044;-75
2022/06/24 06:38:36;;;;;;;12.05;7.72;;;20.70;99.90;;;;;;5038880;28;20060;-77
2022/06/24 06:41:02;;;;;;;12.23;7.88;;;20.60;99.90;;;;;;5032610;28;20068;-77
2022/06/24 06:43:28;;;;;;;11.70;8.18;;;20.60;99.90;;;;;;5047537;28;20546;-76
2022/06/24 06:45:54;;;;;;;12.27;8.73;;;20.50;99.90;;;;;;5049041;28;20534;-76
2022/06/24 06:48:21;;;;;;;11.98;8.50;;;20.60;99.90;;;;;;5040941;28;20049;-76
2022/06/24 06:50:46;;;;;;;11.32;8.88;;;20.50;99.90;;;;;;5031505;28;20041;-76
2022/06/24 06:53:12;;;;;;;10.68;8.02;;;20.50;99.90;;;;;;5043946;28;20128;-76
2022/06/24 06:55:38;;;;;;;11.35;8.32;;;20.50;99.90;;;;;;5047861;28;20049;-75
2022/06/24 06:58:04;;;;;;;11.10;8.77;;;20.50;99.90;;;;;;5026882;28;20080;-75
2022/06/24 07:00:30;;;;;;;9.73;7.72;;;20.40;99.90;;;;;;5050581;28;20060;-76
2022/06/24 07:02:56;;;;;;;10.18;7.13;;;20.40;99.90;;;;;;5033198;28;20049;-76
2022/06/24 07:05:21;;;;;;;11.90;8.02;;;20.40;99.90;;;;;;5048368;28;20057;-75
2022/06/24 07:07:48;;;;;;;11.65;7.70;;;20.40;99.90;;;;;;5053000;28;20056;-75
2022/06/24 07:10:13;;;;;;;9.88;7.90;;;20.40;99.90;;;;;;5052750;28;20057;-75
2022/06/24 07:12:40;;;;;;;10.55;7.97;;;20.50;99.90;;;;;;5033003;28;20103;-76
2022/06/24 07:15:06;;;;;;;13.27;9.48;;;20.40;99.90;;;;;;5032976;28;20512;-74
2022/06/24 07:17:32;;;;;;;10.75;8.02;;;20.40;99.90;;;;;;5046741;28;20120;-77
2022/06/24 07:19:58;;;;;;;12.25;8.88;;;20.40;99.90;;;;;;5033976;28;20180;-75
2022/06/24 07:22:23;;;;;;;11.00;8.65;;;20.40;99.90;;;;;;5046199;28;20053;-76
2022/06/24 07:24:49;;;;;;;10.13;8.45;;;20.40;99.90;;;;;;5062141;28;20048;-74
2022/06/24 07:27:15;;;;;;;11.80;8.10;;;20.40;99.90;;;;;;5046642;28;20049;-74
2022/06/24 07:29:40;;;;;;;10.07;7.35;;;20.40;99.90;;;;;;5023543;28;20542;-74
2022/06/24 07:32:07;;;;;;;10.60;8.52;;;20.40;99.90;;;;;;5048820;28;20110;-74
2022/06/24 07:34:33;;;;;;;10.00;7.32;;;20.30;99.90;;;;;;5052498;28;20053;-73
2022/06/24 07:37:01;;;;;;;12.07;9.05;;;20.40;99.90;;;;;;5037368;28;20057;-74
2022/06/24 07:39:28;;;;;;;8.73;6.55;;;20.40;99.90;;;;;;5012458;28;20057;-77
2022/06/24 07:41:54;;;;;;;10.48;8.40;;;20.50;99.90;;;;;;5036684;28;20080;-73
2022/06/24 07:44:20;;;;;;;10.02;8.32;;;20.60;99.90;;;;;;5049897;28;20077;-72
2022/06/24 07:46:47;;;;;;;12.00;7.93;;;20.60;99.90;;;;;;5035739;28;20054;-75
2022/06/24 07:49:13;;;;;;;11.10;8.10;;;20.70;99.90;;;;;;5038770;28;20056;-72
2022/06/24 07:51:38;;;;;;;9.80;7.18;;;20.70;99.90;;;;;;5040918;28;20049;-72
2022/06/24 07:54:07;;;;;;;9.70;7.05;;;20.70;99.90;;;;;;5039439;28;20052;-73
2022/06/24 07:59:23;;;;;;;11.05;6.82;;;20.70;99.90;;;;;;5033132;28;20054;-74
2022/06/24 08:01:49;;;;;;;10.02;6.90;;;20.80;99.90;;;;;;5031309;28;20480;-74
2022/06/24 08:04:15;;;;;;;10.38;6.82;;;20.90;99.90;;;;;;5030628;28;20045;-74
2022/06/24 08:06:45;;;;;;;9.55;7.32;;;20.80;99.90;;;;;;5050104;28;20556;-74
2022/06/24 08:09:11;;;;;;;10.05;7.25;;;20.90;99.90;;;;;;5037433;28;20452;-73
2022/06/24 08:11:37;;;;;;;10.07;7.78;;;20.90;99.90;;;;;;5030978;28;20100;-76
2022/06/24 08:14:03;;;;;;;10.65;7.90;;;20.80;99.90;;;;;;5032274;28;20046;-74
2022/06/24 08:16:29;;;;;;;8.95;7.03;;;20.80;99.90;;;;;;5036491;28;20052;-73
2022/06/24 08:18:55;;;;;;;10.20;7.43;;;20.80;99.90;;;;;;5036537;28;20742;-73
2022/06/24 08:21:21;;;;;;;9.98;8.18;;;20.90;99.90;;;;;;5040752;28;20084;-73
2022/06/24 08:23:47;;;;;;;12.10;9.10;;;20.90;99.90;;;;;;5037986;28;20450;-74
2022/06/24 08:26:13;;;;;;;11.43;8.02;;;20.90;99.90;;;;;;4986673;28;20068;-77
2022/06/24 08:28:39;;;;;;;10.45;9.07;;;20.90;99.90;;;;;;5006047;28;20053;-72
2022/06/24 08:31:04;;;;;;;12.30;8.75;;;20.90;99.90;;;;;;5033827;28;20044;-73
2022/06/24 08:33:30;;;;;;;12.65;10.13;;;20.90;99.90;;;;;;5001270;28;20119;-73
2022/06/24 08:35:56;;;;;;;11.10;9.70;;;20.90;99.90;;;;;;5037090;28;20071;-72
2022/06/24 08:38:22;;;;;;;11.68;10.18;;;20.90;99.90;;;;;;5034523;28;20037;-72
2022/06/24 08:40:49;;;;;;;13.40;10.02;;;20.90;99.90;;;;;;5036690;28;20132;-78
2022/06/24 08:43:16;;;;;;;14.35;10.25;;;21.00;99.90;;;;;;5016420;28;20862;-72
2022/06/24 08:45:42;;;;;;;13.48;10.48;;;20.90;99.90;;;;;;5033132;28;20057;-72
2022/06/24 08:48:08;;;;;;;13.73;10.38;;;20.90;99.90;;;;;;5032310;28;20037;-72
2022/06/24 08:50:34;;;;;;;12.25;9.50;;;21.00;99.90;;;;;;5031401;28;20054;-71
2022/06/24 08:53:05;;;;;;;13.73;11.55;;;21.00;99.90;;;;;;5013255;28;20060;-74
2022/06/24 08:55:35;;;;;;;14.75;10.88;;;21.00;99.90;;;;;;5028499;28;20110;-72
2022/06/24 08:58:10;;;;;;;13.48;11.43;;;21.00;99.90;;;;;;5028095;28;20049;-72
2022/06/24 09:00:37;;;;;;;16.08;14.32;;;21.00;99.90;;;;;;5030663;28;20056;-72
2022/06/24 09:03:03;;;;;;;14.18;11.68;;;21.10;99.90;;;;;;5030395;28;20072;-71
2022/06/24 09:05:30;;;;;;;14.32;12.40;;;21.10;99.90;;;;;;5032004;28;20107;-71
2022/06/24 09:08:05;;;;;;;14.13;11.77;;;21.10;99.90;;;;;;5012153;28;20519;-72
2022/06/24 09:10:37;;;;;;;14.80;13.15;;;21.20;99.90;;;;;;5037296;28;20100;-72
2022/06/24 09:13:03;;;;;;;15.23;13.10;;;21.30;99.90;;;;;;5030672;28;20481;-73
2022/06/24 09:15:29;;;;;;;14.23;12.57;;;21.40;99.90;;;;;;5029541;28;20088;-72
2022/06/24 09:17:55;;;;;;;12.90;11.60;;;21.50;99.90;;;;;;5035584;28;20132;-71
2022/06/24 09:20:26;;;;;;;13.57;12.07;;;21.60;99.90;;;;;;5016351;28;20102;-75
2022/06/24 09:23:07;;;;;;;15.68;12.43;;;21.60;99.90;;;;;;5029657;28;20481;-71
2022/06/24 09:25:48;;;;;;;12.88;11.10;;;21.60;99.90;;;;;;5004741;28;20080;-71
2022/06/24 09:28:27;;;;;;;16.65;14.95;;;21.60;99.90;;;;;;5032414;28;20377;-75
2022/06/24 09:31:09;;;;;;;15.02;11.60;;;21.60;99.90;;;;;;5052677;28;20123;-72
2022/06/24 09:33:36;;;;;;;;;;;21.70;99.90;;;;;;5034130;28;20053;-72
2022/06/24 09:36:03;;;;;;;12.57;10.93;;;21.80;99.90;;;;;;5035739;28;19921;-71
2022/06/24 09:38:29;;;;;;;12.35;11.07;;;21.80;99.90;;;;;;5014805;28;20057;-72
2022/06/24 09:41:05;;;;;;;11.52;10.32;;;21.90;99.90;;;;;;5038099;28;20394;-71
2022/06/24 09:43:31;;;;;;;13.57;12.25;;;21.80;99.90;;;;;;5055909;28;20047;-71
2022/06/24 09:45:58;;;;;;;12.82;11.52;;;21.70;99.90;;;;;;5035292;28;20075;-71
2022/06/24 09:48:37;;;;;;;14.73;13.15;;;21.60;99.90;;;;;;5033811;28;20056;-71
2022/06/24 09:51:07;;;;;;;17.42;15.60;;;21.60;99.90;;;;;;5033283;28;20621;-71
2022/06/24 09:53:40;;;;;;;17.20;15.32;;;21.50;99.90;;;;;;5033321;28;20488;-71
2022/06/24 09:56:07;;;;;;;14.88;13.38;;;21.40;99.90;;;;;;5032757;28;20037;-70
2022/06/24 09:58:34;;;;;;;15.65;14.05;;;21.40;99.90;;;;;;5030947;28;20060;-71
2022/06/24 10:01:00;;;;;;;8.98;7.47;;;21.30;99.90;;;;;;5034516;28;20054;-70
2022/06/24 10:03:27;;;;;;;6.63;4.43;;;21.20;99.90;;;;;;5033616;28;20072;-71
2022/06/24 10:05:59;;;;;;;6.25;3.20;;;21.00;99.90;;;;;;5009958;28;20049;-71
2022/06/24 10:08:27;;;;;;;;;;;20.90;99.90;;;;;;5035157;28;20124;-70
2022/06/24 10:10:55;;;;;;;7.05;3.40;;;20.70;99.90;;;;;;5050989;28;20015;-72
2022/06/24 10:13:29;;;;;;;6.80;2.88;;;20.50;99.90;;;;;;5035451;28;20459;-71
2022/06/24 10:15:57;;;;;;;5.75;2.58;;;20.30;99.90;;;;;;5036171;28;20120;-71
2022/06/24 10:18:30;;;;;;;5.38;2.20;;;20.10;99.90;;;;;;5038216;28;20057;-71
2022/06/24 10:21:07;;;;;;;5.68;2.30;;;20.00;99.90;;;;;;5031822;28;20111;-71
2022/06/24 10:23:46;;;;;;;5.50;2.60;;;20.10;99.90;;;;;;5034467;28;20061;-70
2022/06/24 10:26:13;;;;;;;4.70;2.10;;;20.00;99.90;;;;;;5045936;28;20396;-69
2022/06/24 10:29:05;;;;;;;6.78;2.40;;;20.00;99.90;;;;;;5030842;28;20065;-70
2022/06/24 10:31:53;;;;;;;4.63;1.90;;;19.90;99.90;;;;;;5014209;28;20053;-71
2022/06/24 10:34:28;;;;;;;5.05;2.03;;;19.80;99.90;;;;;;5031384;28;20385;-70
2022/06/24 10:36:58;;;;;;;5.97;2.08;;;19.70;99.90;;;;;;5032905;28;20503;-73
2022/06/24 10:39:26;;;;;;;5.68;2.00;;;19.60;99.90;;;;;;5032505;28;20708;-70
2022/06/24 10:42:06;;;;;;;5.00;2.60;;;19.70;99.90;;;;;;5050397;28;20059;-71
2022/06/24 10:44:37;;;;;;;5.45;1.98;;;19.60;99.90;;;;;;5031169;28;20420;-71
2022/06/24 10:47:10;;;;;;;5.57;2.20;;;19.70;99.90;;;;;;5031106;28;20053;-70
2022/06/24 10:50:13;;;;;;;5.00;2.47;;;19.60;99.90;;;;;;5031614;28;20408;-70
2022/06/24 10:52:47;;;;;;;4.78;2.53;;;19.70;99.90;;;;;;5031088;28;20068;-70
2022/06/24 10:55:28;;;;;;;5.05;2.60;;;19.70;99.90;;;;;;5032029;28;20049;-70
2022/06/24 10:58:16;;;;;;;5.72;2.35;;;19.60;99.90;;;;;;5030908;28;20116;-71
2022/06/24 11:00:54;;;;;;;6.63;2.65;;;19.60;99.90;;;;;;5033891;28;20543;-70
2022/06/24 11:03:32;;;;;;;4.82;2.20;;;19.70;99.90;;;;;;5030164;28;20037;-70
2022/06/24 11:05:58;;;;;;;5.25;2.47;;;19.70;99.90;;;;;;5034753;28;20049;-72
2022/06/24 11:08:25;;;;;;;6.40;2.67;;;19.70;99.90;;;;;;5030771;28;20103;-70
2022/06/24 11:10:52;;;;;;;4.82;2.60;;;19.60;99.90;;;;;;5030179;28;20194;-75
2022/06/24 11:13:21;;;;;;;5.72;2.70;;;19.70;99.90;;;;;;5033638;28;20056;-73
2022/06/24 11:15:58;;;;;;;6.07;2.75;;;19.60;99.90;;;;;;5030487;28;20386;-71
2022/06/24 11:18:30;;;;;;;4.65;2.58;;;19.50;99.90;;;;;;5037392;28;20128;-70
2022/06/24 11:21:09;;;;;;;4.93;2.47;;;19.50;99.90;;;;;;5032832;28;20091;-71
2022/06/24 11:23:39;;;;;;;6.30;2.60;;;19.50;99.90;;;;;;5032880;28;20135;-70
2022/06/24 11:26:19;;;;;;;4.97;2.85;;;19.50;99.90;;;;;;5032084;28;20075;-71
2022/06/24 11:28:55;;;;;;;5.43;2.90;;;19.60;99.90;;;;;;5013414;28;20468;-71
2022/06/24 11:31:26;;;;;;;5.85;2.85;;;19.70;99.90;;;;;;5051749;28;20503;-71
2022/06/24 11:34:04;;;;;;;4.90;2.90;;;19.70;99.90;;;;;;5045041;28;20042;-71
2022/06/24 11:36:31;;;;;;;6.72;3.33;;;19.80;99.90;;;;;;5033315;28;20373;-71
2022/06/24 11:39:01;;;;;;;6.03;2.67;;;19.80;99.90;;;;;;5031772;28;20048;-73
2022/06/24 11:41:33;;;;;;;5.00;2.80;;;20.00;99.90;;;;;;5030787;28;20053;-72
2022/06/24 11:43:59;;;;;;;4.72;2.63;;;20.20;99.90;;;;;;5033197;28;20042;-73
2022/06/24 11:46:25;;;;;;;5.90;2.80;;;20.30;99.90;;;;;;5028743;28;20523;-72
2022/06/24 11:49:13;;;;;;;4.85;2.75;;;20.60;99.90;;;;;;5034521;28;20038;-71
2022/06/24 11:51:40;;;;;;;5.45;2.63;;;20.90;99.90;;;;;;5048156;28;20045;-72
2022/06/24 11:54:08;;;;;;;5.88;2.95;;;21.00;99.90;;;;;;5049743;28;20041;-72
2022/06/24 11:56:37;;;;;;;4.80;2.70;;;21.10;99.90;;;;;;5025689;28;20057;-72
2022/06/24 11:59:05;;;;;;;5.63;2.70;;;21.20;99.90;;;;;;5029789;28;20064;-72
2022/06/24 12:01:32;;;;;;;5.93;2.88;;;21.30;99.90;;;;;;5033878;28;20084;-72
2022/06/24 12:04:17;;;;;;;5.65;2.85;;;21.50;99.90;;;;;;5030825;28;20537;-71
2022/06/24 12:06:44;;;;;;;5.78;2.88;;;21.70;99.90;;;;;;5043467;28;20057;-72
2022/06/24 12:09:11;;;;;;;5.80;3.33;;;21.70;99.90;;;;;;5034098;28;20057;-72
2022/06/24 12:11:42;;;;;;;7.07;3.10;;;21.80;99.90;;;;;;5034786;28;20049;-74
2022/06/24 12:14:09;;;;;;;6.50;3.30;;;21.80;99.90;;;;;;5035352;28;20072;-73
2022/06/24 12:16:59;;;;;;;5.43;3.13;;;21.80;99.90;;;;;;5034078;28;20058;-73
2022/06/24 12:19:26;;;;;;;6.47;3.22;;;21.90;99.90;;;;;;5035080;28;20377;-72
2022/06/24 12:22:06;;;;;;;7.15;3.25;;;22.10;99.90;;;;;;5032543;28;20056;-73
2022/06/24 12:24:32;;;;;;;6.50;3.72;;;22.00;99.90;;;;;;5043072;28;20052;-72
2022/06/24 12:27:01;;;;;;;6.55;3.80;;;22.10;99.90;;;;;;5031290;28;20045;-73
2022/06/24 12:29:39;;;;;;;6.00;3.67;;;22.20;99.90;;;;;;5028792;28;20049;-73
2022/06/24 12:32:06;;;;;;;6.10;3.72;;;22.30;99.90;;;;;;5030915;28;20049;-73
2022/06/24 12:34:37;;;;;;;6.60;4.25;;;22.60;99.90;;;;;;5041113;28;20053;-74
2022/06/24 12:37:06;;;;;;;8.07;4.13;;;22.70;99.90;;;;;;5033009;28;20041;-74
2022/06/24 12:39:36;;;;;;;7.90;4.60;;;22.90;99.90;;;;;;5051291;28;20059;-76
2022/06/24 12:42:03;;;;;;;7.22;4.60;;;22.90;99.90;;;;;;5037556;28;20488;-75
2022/06/24 12:44:43;;;;;;;6.93;4.95;;;23.00;99.90;;;;;;5038580;28;20576;-76
2022/06/24 12:53:00;;;;;;;9.60;6.60;;;23.20;99.90;;;;;;5029590;28;20053;-74
2022/06/24 12:55:28;;;;;;;6.72;5.50;;;23.30;99.90;;;;;;5028616;28;20083;-75
2022/06/24 12:57:55;;;;;;;10.02;6.60;;;23.20;99.90;;;;;;5047002;28;20061;-74
2022/06/24 13:00:20;;;;;;;7.95;6.40;;;23.20;99.90;;;;;;5028662;28;20111;-74
2022/06/24 13:02:55;;;;;;;7.95;6.20;;;23.40;99.90;;;;;;5028903;28;20052;-75
2022/06/24 13:05:23;;;;;;;8.57;6.53;;;23.40;99.90;;;;;;5038441;28;20175;-76
2022/06/24 13:07:49;;;;;;;7.80;6.15;;;23.40;99.90;;;;;;5028810;28;20103;-75